Quandahl, Iowa
Current Conditions -  °F | °C
As of 3:15 PM on Wednesday 26 Nov 2014 (Local Time) from KDEH Reporting Station
Unknown Precip Unknown Precip  
Wind Chill: 19°   Ceiling: Unl
Heat Index: 27°   Visibility: 3mi
Dew Point: 23°   Wind: 7mph
Humidity: 86%   Direction: 20°NNE
Pressure: 30.13"   Gusts: NA
Location:  43.3626°N, 91.8164°W
Report Text: KDEH 262115Z AUTO 02006KT 3SM -UP FEW029 SCT037 M03/M05 A3013 RMK AO2
Loading
Personal Weather Stations






























Interactive Weather Map New forecast layout! Learn more

10-Day Weather Forecast

Advertisements
Track Severe Weather on mobile